createdAt,value
2022-07-26T00:00:40.313Z,61.74
2022-07-26T00:01:40.324Z,62.26
2022-07-26T00:02:47.321Z,63.14
2022-07-26T00:03:41.216Z,61.94
2022-07-26T00:04:40.185Z,61.96
2022-07-26T00:05:40.225Z,60.67
2022-07-26T00:06:40.181Z,60.94
2022-07-26T00:07:40.173Z,60.97
2022-07-26T00:08:40.151Z,58.15
2022-07-26T00:09:43.786Z,57.80
2022-07-26T00:10:41.150Z,59.48
2022-07-26T00:11:40.128Z,59.85
2022-07-26T00:12:40.110Z,60.46
2022-07-26T00:13:40.107Z,60.01
2022-07-26T00:14:40.100Z,60.23
2022-07-26T00:15:40.102Z,58.34
2022-07-26T00:16:40.188Z,58.97
2022-07-26T00:17:40.069Z,60.49
2022-07-26T00:18:40.089Z,58.58
2022-07-26T00:19:40.047Z,57.08
2022-07-26T00:20:40.054Z,59.16
2022-07-26T00:21:40.881Z,59.79
2022-07-26T00:22:40.025Z,60.23
2022-07-26T00:23:40.004Z,59.27
2022-07-26T00:24:39.993Z,58.25
2022-07-26T00:25:40.005Z,56.68
2022-07-26T00:26:39.976Z,58.25
2022-07-26T00:27:39.964Z,58.47
2022-07-26T00:28:39.952Z,60.92
2022-07-26T00:29:39.951Z,62.02
2022-07-26T00:30:39.955Z,58.96
2022-07-26T00:31:39.974Z,60.48
2022-07-26T00:32:39.911Z,60.48
2022-07-26T00:33:39.913Z,60.12
2022-07-26T00:34:39.911Z,58.87
2022-07-26T00:35:39.900Z,58.98
2022-07-26T00:36:41.822Z,60.30
2022-07-26T00:37:39.864Z,59.32
2022-07-26T00:38:39.858Z,59.85
2022-07-26T00:39:39.848Z,59.14
2022-07-26T00:40:39.851Z,59.58
2022-07-26T00:41:39.892Z,59.74
2022-07-26T00:42:39.813Z,61.08
2022-07-26T00:43:39.804Z,59.12
2022-07-26T00:44:39.793Z,60.41
2022-07-26T00:45:39.843Z,60.19
2022-07-26T00:46:39.819Z,58.84
2022-07-26T00:47:39.766Z,61.40
2022-07-26T00:48:39.788Z,59.56
2022-07-26T00:49:39.748Z,60.24
2022-07-26T00:50:39.754Z,60.42
2022-07-26T00:51:39.729Z,58.66
2022-07-26T00:52:39.711Z,58.57
2022-07-26T00:53:39.709Z,61.51
2022-07-26T00:54:39.711Z,58.35
2022-07-26T00:55:39.699Z,60.19
2022-07-26T00:56:39.685Z,58.38
2022-07-26T00:57:39.672Z,60.27
2022-07-26T00:58:39.663Z,59.65
2022-07-26T00:59:39.648Z,58.24
2022-07-26T01:00:39.645Z,59.61
2022-07-26T01:01:39.769Z,60.99
2022-07-26T01:02:39.699Z,61.04
2022-07-26T01:03:39.994Z,59.92
2022-07-26T01:04:39.598Z,59.61
2022-07-26T01:05:39.602Z,58.01
2022-07-26T01:06:39.581Z,59.89
2022-07-26T01:07:39.573Z,61.29
2022-07-26T01:08:39.546Z,61.04
2022-07-26T01:09:39.551Z,59.38
2022-07-26T01:10:39.555Z,61.35
2022-07-26T01:11:39.525Z,61.48
2022-07-26T01:12:39.505Z,60.94
2022-07-26T01:13:39.509Z,61.31
2022-07-26T01:14:39.499Z,61.12
2022-07-26T01:15:39.547Z,60.75
2022-07-26T01:16:39.524Z,61.05
2022-07-26T01:17:39.460Z,59.33
2022-07-26T01:18:39.462Z,59.38
2022-07-26T01:19:39.459Z,60.19
2022-07-26T01:20:39.458Z,60.44
2022-07-26T01:21:39.425Z,60.05
2022-07-26T01:22:39.422Z,60.80
2022-07-26T01:23:39.419Z,60.95
2022-07-26T01:24:39.400Z,62.47
2022-07-26T01:25:42.397Z,62.33
2022-07-26T01:26:39.373Z,62.24
2022-07-26T01:27:39.723Z,63.87
2022-07-26T01:28:39.365Z,62.51
2022-07-26T01:29:39.343Z,63.11
2022-07-26T01:30:39.360Z,60.96
2022-07-26T01:31:39.387Z,58.88
2022-07-26T01:32:39.454Z,62.03
2022-07-26T01:33:39.308Z,58.98
2022-07-26T01:34:39.303Z,59.25
2022-07-26T01:35:39.303Z,59.41
2022-07-26T01:36:39.704Z,60.04
2022-07-26T01:37:39.272Z,59.67
2022-07-26T01:38:39.254Z,59.53
2022-07-26T01:39:39.249Z,59.13
2022-07-26T01:40:39.257Z,61.92
2022-07-26T01:41:39.218Z,63.49
2022-07-26T01:42:39.219Z,62.36
2022-07-26T01:43:39.210Z,60.63
2022-07-26T01:44:39.200Z,59.96
2022-07-26T01:45:39.426Z,59.92
2022-07-26T01:46:39.184Z,59.91
2022-07-26T01:47:39.172Z,61.83
2022-07-26T01:48:39.213Z,61.76
2022-07-26T01:49:39.138Z,62.35
2022-07-26T01:50:39.176Z,60.77
2022-07-26T01:51:39.139Z,62.96
2022-07-26T01:52:39.127Z,61.84
2022-07-26T01:53:39.126Z,62.19
2022-07-26T01:54:39.102Z,64.07
2022-07-26T01:55:39.093Z,63.17
2022-07-26T01:56:39.097Z,63.04
2022-07-26T01:57:39.069Z,62.53
2022-07-26T01:58:39.057Z,62.12
2022-07-26T01:59:39.051Z,62.92
2022-07-26T02:00:39.074Z,62.66
2022-07-26T02:01:40.401Z,64.12
2022-07-26T02:02:39.165Z,62.88
2022-07-26T02:03:39.018Z,62.68
2022-07-26T02:04:39.008Z,62.32
2022-07-26T02:05:38.980Z,65.91
2022-07-26T02:06:39.005Z,65.61
2022-07-26T02:07:38.972Z,64.31
2022-07-26T02:08:38.963Z,62.93
2022-07-26T02:09:39.981Z,64.08
2022-07-26T02:10:38.949Z,64.07
2022-07-26T02:11:38.957Z,63.04
2022-07-26T02:12:38.930Z,62.71
2022-07-26T02:13:38.914Z,61.34
2022-07-26T02:14:38.909Z,63.46
2022-07-26T02:15:38.944Z,64.41
2022-07-26T02:16:38.907Z,63.11
2022-07-26T02:17:38.871Z,65.32
2022-07-26T02:18:38.863Z,63.39
2022-07-26T02:19:38.852Z,64.54
2022-07-26T02:20:38.848Z,64.76
2022-07-26T02:21:38.843Z,64.33
2022-07-26T02:22:38.823Z,63.29
2022-07-26T02:23:41.760Z,63.08
2022-07-26T02:24:38.804Z,64.31
2022-07-26T02:25:38.789Z,64.48
2022-07-26T02:26:38.803Z,63.12
2022-07-26T02:27:38.773Z,62.51
2022-07-26T02:28:38.769Z,63.54
2022-07-26T02:29:38.742Z,65.52
2022-07-26T02:30:38.746Z,64.44
2022-07-26T02:31:38.803Z,63.49
2022-07-26T02:32:38.727Z,63.42
2022-07-26T02:33:38.718Z,64.26
2022-07-26T02:34:38.702Z,63.75
2022-07-26T02:35:38.694Z,65.75
2022-07-26T02:36:38.700Z,63.39
2022-07-26T02:37:43.739Z,64.51
2022-07-26T02:38:39.670Z,63.25
2022-07-26T02:39:38.652Z,64.12
2022-07-26T02:40:38.631Z,65.15
2022-07-26T02:41:38.672Z,63.14
2022-07-26T02:42:38.627Z,65.64
2022-07-26T02:43:38.614Z,64.18
2022-07-26T02:44:38.592Z,64.59
2022-07-26T02:45:38.598Z,66.12
2022-07-26T02:46:38.641Z,64.25
2022-07-26T02:47:38.572Z,65.53
2022-07-26T02:48:38.614Z,65.73
2022-07-26T02:49:38.551Z,66.14
2022-07-26T02:50:38.546Z,65.70
2022-07-26T02:51:38.552Z,67.92
2022-07-26T02:52:38.515Z,66.65
2022-07-26T02:53:38.557Z,67.05
2022-07-26T02:54:38.506Z,66.14
2022-07-26T02:55:38.496Z,65.24
2022-07-26T02:56:38.501Z,65.53
2022-07-26T02:57:45.566Z,65.58
2022-07-26T02:58:39.464Z,65.92
2022-07-26T02:59:38.452Z,65.65
2022-07-26T03:00:38.436Z,65.43
2022-07-26T03:01:38.502Z,65.02
2022-07-26T03:02:38.467Z,66.99
2022-07-26T03:03:38.412Z,65.93
2022-07-26T03:04:38.400Z,66.07
2022-07-26T03:05:38.425Z,67.16
2022-07-26T03:06:38.399Z,66.64
2022-07-26T03:07:38.375Z,67.00
2022-07-26T03:08:38.362Z,66.76
2022-07-26T03:09:38.348Z,65.87
2022-07-26T03:10:38.342Z,65.52
2022-07-26T03:11:38.352Z,66.32
2022-07-26T03:12:38.322Z,66.30
2022-07-26T03:13:38.306Z,67.02
2022-07-26T03:14:38.301Z,64.83
2022-07-26T03:15:38.333Z,66.22
2022-07-26T03:16:38.321Z,67.91
2022-07-26T03:17:38.264Z,68.40
2022-07-26T03:18:38.264Z,67.76
2022-07-26T03:19:38.252Z,66.08
2022-07-26T03:20:38.233Z,68.39
2022-07-26T03:21:38.253Z,67.52
2022-07-26T03:22:38.229Z,68.51
2022-07-26T03:23:38.212Z,66.45
2022-07-26T03:24:38.198Z,67.46
2022-07-26T03:25:38.183Z,67.20
2022-07-26T03:26:39.198Z,67.22
2022-07-26T03:27:38.170Z,66.12
2022-07-26T03:28:38.162Z,66.95
2022-07-26T03:29:38.155Z,66.79
2022-07-26T03:30:38.162Z,66.45
2022-07-26T03:31:38.215Z,68.19
2022-07-26T03:32:38.124Z,68.10
2022-07-26T03:33:38.109Z,67.80
2022-07-26T03:34:38.101Z,67.43
2022-07-26T03:35:38.090Z,67.88
2022-07-26T03:36:38.089Z,66.95
2022-07-26T03:37:46.045Z,66.38
2022-07-26T03:38:39.057Z,67.24
2022-07-26T03:39:38.091Z,68.38
2022-07-26T03:40:38.028Z,69.29
2022-07-26T03:41:38.043Z,68.64
2022-07-26T03:42:38.041Z,69.21
2022-07-26T03:43:38.006Z,68.62
2022-07-26T03:44:37.995Z,68.24
2022-07-26T03:45:37.988Z,70.25
2022-07-26T03:46:38.028Z,68.25
2022-07-26T03:47:37.967Z,67.93
2022-07-26T03:48:38.000Z,67.99
2022-07-26T03:49:37.949Z,68.55
2022-07-26T03:50:37.938Z,68.48
2022-07-26T03:51:37.948Z,68.48
2022-07-26T03:52:37.905Z,68.90
2022-07-26T03:53:37.906Z,68.74
2022-07-26T03:54:37.899Z,69.08
2022-07-26T03:55:37.882Z,68.10
2022-07-26T03:56:37.942Z,67.84
2022-07-26T03:57:37.866Z,69.52
2022-07-26T03:58:37.854Z,69.08
2022-07-26T03:59:37.844Z,69.93
2022-07-26T04:00:37.832Z,69.28
2022-07-26T04:01:37.940Z,68.64
2022-07-26T04:02:37.882Z,69.72
2022-07-26T04:03:37.807Z,69.23
2022-07-26T04:04:37.795Z,69.30
2022-07-26T04:05:37.788Z,69.30
2022-07-26T04:06:37.793Z,68.54
2022-07-26T04:07:37.781Z,70.18
2022-07-26T04:08:37.746Z,69.44
2022-07-26T04:09:37.744Z,70.40
2022-07-26T04:10:37.729Z,69.95
2022-07-26T04:11:37.745Z,69.56
2022-07-26T04:12:37.701Z,68.77
2022-07-26T04:13:37.717Z,68.49
2022-07-26T04:14:37.700Z,70.69
2022-07-26T04:15:37.685Z,69.90
2022-07-26T04:16:42.940Z,67.92
2022-07-26T04:17:38.667Z,69.57
2022-07-26T04:18:37.654Z,68.27
2022-07-26T04:19:39.963Z,69.05
2022-07-26T04:20:37.629Z,69.33
2022-07-26T04:21:37.645Z,69.40
2022-07-26T04:22:37.621Z,70.53
2022-07-26T04:23:37.601Z,70.41
2022-07-26T04:24:37.605Z,69.03
2022-07-26T04:25:38.715Z,68.54
2022-07-26T04:26:37.595Z,71.06
2022-07-26T04:27:37.569Z,69.76
2022-07-26T04:28:37.559Z,69.86
2022-07-26T04:29:37.548Z,69.65
2022-07-26T04:30:37.586Z,68.14
2022-07-26T04:31:37.545Z,68.35
2022-07-26T04:32:37.510Z,69.23
2022-07-26T04:33:38.510Z,69.90
2022-07-26T04:34:37.495Z,70.43
2022-07-26T04:35:37.496Z,69.66
2022-07-26T04:36:37.481Z,71.04
2022-07-26T04:37:37.471Z,70.34
2022-07-26T04:38:37.449Z,69.76
2022-07-26T04:39:38.453Z,70.68
2022-07-26T04:40:40.813Z,69.98
2022-07-26T04:41:37.480Z,70.00
2022-07-26T04:42:37.423Z,69.62
2022-07-26T04:43:37.413Z,69.20
2022-07-26T04:44:37.397Z,67.89
2022-07-26T04:45:37.477Z,67.28
2022-07-26T04:46:37.497Z,68.70
2022-07-26T04:47:38.368Z,68.70
2022-07-26T04:48:37.402Z,67.99
2022-07-26T04:49:37.358Z,68.19
2022-07-26T04:50:37.349Z,67.83
2022-07-26T04:51:37.354Z,66.83
2022-07-26T04:52:37.321Z,67.14
2022-07-26T04:53:37.321Z,66.31
2022-07-26T04:54:37.306Z,67.26
2022-07-26T04:55:37.296Z,66.43
2022-07-26T04:56:37.306Z,65.52
2022-07-26T04:57:37.304Z,65.50
2022-07-26T04:58:37.264Z,65.14
2022-07-26T04:59:37.254Z,65.09
2022-07-26T05:00:51.368Z,64.97
2022-07-26T05:01:39.262Z,64.37
2022-07-26T05:02:37.345Z,64.50
2022-07-26T05:03:37.210Z,64.45
2022-07-26T05:04:37.201Z,64.94
2022-07-26T05:05:37.193Z,63.67
2022-07-26T05:06:37.187Z,64.91
2022-07-26T05:07:37.195Z,63.12
2022-07-26T05:08:37.168Z,63.70
2022-07-26T05:09:37.161Z,63.00
2022-07-26T05:10:37.142Z,64.03
2022-07-26T05:11:37.131Z,64.01
2022-07-26T05:12:37.147Z,63.19
2022-07-26T05:13:37.114Z,64.17
2022-07-26T05:14:37.104Z,63.15
2022-07-26T05:15:37.091Z,63.12
2022-07-26T05:16:39.077Z,62.81
2022-07-26T05:17:38.094Z,63.73
2022-07-26T05:18:45.715Z,64.04
2022-07-26T05:19:38.049Z,62.47
2022-07-26T05:20:37.032Z,61.81
2022-07-26T05:21:37.025Z,62.40
2022-07-26T05:22:37.043Z,62.90
2022-07-26T05:23:37.010Z,62.76
2022-07-26T05:24:36.992Z,63.37
2022-07-26T05:25:36.990Z,63.12
2022-07-26T05:26:36.986Z,61.73
2022-07-26T05:27:36.994Z,61.65
2022-07-26T05:28:36.960Z,63.13
2022-07-26T05:29:36.947Z,62.80
2022-07-26T05:30:36.990Z,61.68
2022-07-26T05:31:36.934Z,63.15
2022-07-26T05:32:53.103Z,62.02
2022-07-26T05:33:36.912Z,61.83
2022-07-26T05:34:36.905Z,62.02
2022-07-26T05:35:36.895Z,62.57
2022-07-26T05:36:36.894Z,62.96
2022-07-26T05:37:36.890Z,63.16
2022-07-26T05:38:36.879Z,62.69
2022-07-26T05:39:36.838Z,62.67
2022-07-26T05:40:36.841Z,62.24
2022-07-26T05:41:36.824Z,61.59
2022-07-26T05:42:36.839Z,63.05
2022-07-26T05:43:41.363Z,62.70
2022-07-26T05:44:42.517Z,63.14
2022-07-26T05:45:37.835Z,62.87
2022-07-26T05:46:36.829Z,63.11
2022-07-26T05:47:36.787Z,62.09
2022-07-26T05:48:36.829Z,62.52
2022-07-26T05:49:40.144Z,62.36
2022-07-26T05:50:36.745Z,62.06
2022-07-26T05:51:36.729Z,63.46
2022-07-26T05:52:36.742Z,64.27
2022-07-26T05:53:36.718Z,64.34
2022-07-26T05:54:36.712Z,63.08
2022-07-26T05:55:36.693Z,64.02
2022-07-26T05:56:36.685Z,63.51
2022-07-26T05:57:36.694Z,64.07
2022-07-26T05:58:36.670Z,63.50
2022-07-26T05:59:36.642Z,63.58
2022-07-26T06:00:36.650Z,63.91
2022-07-26T06:01:37.636Z,62.48
2022-07-26T06:02:36.756Z,63.52
2022-07-26T06:03:36.627Z,63.72
2022-07-26T06:04:36.652Z,63.99
2022-07-26T06:05:36.597Z,64.52
2022-07-26T06:06:36.595Z,63.50
2022-07-26T06:07:36.584Z,61.91
2022-07-26T06:08:36.566Z,63.52
2022-07-26T06:09:36.557Z,63.48
2022-07-26T06:10:36.563Z,63.96
2022-07-26T06:11:36.533Z,64.32
2022-07-26T06:12:36.549Z,63.87
2022-07-26T06:13:36.522Z,63.41
2022-07-26T06:14:36.508Z,64.77
2022-07-26T06:15:36.489Z,64.08
2022-07-26T06:16:36.513Z,64.19
2022-07-26T06:17:36.547Z,63.27
2022-07-26T06:18:36.477Z,65.24
2022-07-26T06:19:36.461Z,66.70
2022-07-26T06:20:36.455Z,65.69
2022-07-26T06:21:36.447Z,65.15
2022-07-26T06:22:36.473Z,65.92
2022-07-26T06:23:36.418Z,64.99
2022-07-26T06:24:36.420Z,64.59
2022-07-26T06:25:36.407Z,65.82
2022-07-26T06:26:36.423Z,65.16
2022-07-26T06:27:36.395Z,63.99
2022-07-26T06:28:36.377Z,64.88
2022-07-26T06:29:36.377Z,65.43
2022-07-26T06:30:36.358Z,66.01
2022-07-26T06:31:36.414Z,66.18
2022-07-26T06:32:36.351Z,67.26
2022-07-26T06:33:36.334Z,65.27
2022-07-26T06:34:36.320Z,64.80
2022-07-26T06:35:36.303Z,64.00
2022-07-26T06:36:36.302Z,65.12
2022-07-26T06:37:36.312Z,65.34
2022-07-26T06:38:36.286Z,64.35
2022-07-26T06:39:36.260Z,62.60
2022-07-26T06:40:36.278Z,62.55
2022-07-26T06:41:36.249Z,63.00
2022-07-26T06:42:36.253Z,65.59
2022-07-26T06:43:36.237Z,62.64
2022-07-26T06:44:36.214Z,62.38
2022-07-26T06:45:36.267Z,64.07
2022-07-26T06:46:36.203Z,64.46
2022-07-26T06:47:36.203Z,65.29
2022-07-26T06:48:36.235Z,65.17
2022-07-26T06:49:36.298Z,65.59
2022-07-26T06:50:36.169Z,66.94
2022-07-26T06:51:36.160Z,67.27
2022-07-26T06:52:36.165Z,66.70
2022-07-26T06:53:36.148Z,67.44
2022-07-26T06:54:36.126Z,67.48
2022-07-26T06:55:36.109Z,67.18
2022-07-26T06:56:36.105Z,67.06
2022-07-26T06:57:40.374Z,67.65
2022-07-26T06:58:37.085Z,66.41
2022-07-26T06:59:36.069Z,66.73
2022-07-26T07:00:36.071Z,66.42
2022-07-26T07:01:51.607Z,66.49
2022-07-26T07:02:37.085Z,66.84
2022-07-26T07:03:36.033Z,65.60
2022-07-26T07:04:36.053Z,64.83
2022-07-26T07:05:36.017Z,65.60
2022-07-26T07:06:36.040Z,66.08
2022-07-26T07:07:36.006Z,64.45
2022-07-26T07:08:36.007Z,65.60
2022-07-26T07:09:35.981Z,65.44
2022-07-26T07:10:35.993Z,64.83
2022-07-26T07:11:35.948Z,65.61
2022-07-26T07:12:35.961Z,65.16
2022-07-26T07:13:35.955Z,65.12
2022-07-26T07:14:35.932Z,66.26
2022-07-26T07:15:35.921Z,67.11
2022-07-26T07:16:35.973Z,65.96
2022-07-26T07:17:35.918Z,66.36
2022-07-26T07:18:35.894Z,65.61
2022-07-26T07:19:35.885Z,66.73
2022-07-26T07:20:35.874Z,66.22
2022-07-26T07:21:35.866Z,66.86
2022-07-26T07:22:35.906Z,64.91
2022-07-26T07:23:35.848Z,64.85
2022-07-26T07:24:37.123Z,63.57
2022-07-26T07:25:35.826Z,64.39
2022-07-26T07:26:36.940Z,64.88
2022-07-26T07:27:35.817Z,64.88
2022-07-26T07:28:35.795Z,67.33
2022-07-26T07:29:35.788Z,67.43
2022-07-26T07:30:35.787Z,65.91
2022-07-26T07:31:48.635Z,66.04
2022-07-26T07:32:36.845Z,66.79
2022-07-26T07:33:43.573Z,66.27
2022-07-26T07:34:36.739Z,66.88
2022-07-26T07:35:35.715Z,66.00
2022-07-26T07:36:35.722Z,64.37
2022-07-26T07:37:52.929Z,63.11
2022-07-26T07:38:37.380Z,64.10
2022-07-26T07:39:38.501Z,63.99
2022-07-26T07:40:35.706Z,63.31
2022-07-26T07:41:35.670Z,65.81
2022-07-26T07:42:35.679Z,66.68
2022-07-26T07:43:35.643Z,65.67
2022-07-26T07:44:35.643Z,65.93
2022-07-26T07:45:35.629Z,66.24
2022-07-26T07:46:35.656Z,66.13
2022-07-26T07:47:35.639Z,65.28
2022-07-26T07:48:35.670Z,64.41
2022-07-26T07:49:35.646Z,64.76
2022-07-26T07:50:35.590Z,64.69
2022-07-26T07:51:36.165Z,65.50
2022-07-26T07:52:35.578Z,65.29
2022-07-26T07:53:35.550Z,64.25
2022-07-26T07:54:35.564Z,65.25
2022-07-26T07:55:41.388Z,64.81
2022-07-26T07:56:37.528Z,64.89
2022-07-26T07:57:35.536Z,64.28
2022-07-26T07:58:35.497Z,64.74
2022-07-26T07:59:39.123Z,65.54
2022-07-26T08:00:35.505Z,65.03
2022-07-26T08:01:39.790Z,64.82
2022-07-26T08:02:36.498Z,65.30
2022-07-26T08:03:38.747Z,64.97
2022-07-26T08:04:35.560Z,66.87
2022-07-26T08:05:35.441Z,66.85
2022-07-26T08:06:35.429Z,67.66
2022-07-26T08:07:36.283Z,66.30
2022-07-26T08:08:35.422Z,67.20
2022-07-26T08:09:35.415Z,67.09
2022-07-26T08:10:35.390Z,67.07
2022-07-26T08:11:35.374Z,66.99
2022-07-26T08:12:35.407Z,66.25
2022-07-26T08:13:35.361Z,66.83
2022-07-26T08:14:35.392Z,65.83
2022-07-26T08:15:35.343Z,66.16
2022-07-26T08:16:35.366Z,65.19
2022-07-26T08:17:38.080Z,65.77
2022-07-26T08:18:36.491Z,67.65
2022-07-26T08:19:41.715Z,67.60
2022-07-26T08:20:36.291Z,67.05
2022-07-26T08:21:35.287Z,67.63
2022-07-26T08:22:35.267Z,67.60
2022-07-26T08:23:35.268Z,68.31
2022-07-26T08:24:35.248Z,67.24
2022-07-26T08:25:35.239Z,68.26
2022-07-26T08:26:35.227Z,67.29
2022-07-26T08:27:40.682Z,66.53
2022-07-26T08:28:59.570Z,67.62
2022-07-26T08:29:37.193Z,67.65
2022-07-26T08:30:35.179Z,68.53
2022-07-26T08:31:35.190Z,68.63
2022-07-26T08:32:35.157Z,68.52
2022-07-26T08:33:35.170Z,67.88
2022-07-26T08:34:35.133Z,67.72
2022-07-26T08:35:35.136Z,67.27
2022-07-26T08:36:35.120Z,68.36
2022-07-26T08:37:35.113Z,68.09
2022-07-26T08:38:35.112Z,67.64
2022-07-26T08:39:35.091Z,66.23
2022-07-26T08:40:35.075Z,68.65
2022-07-26T08:41:36.063Z,68.28
2022-07-26T08:42:35.064Z,67.88
2022-07-26T08:43:43.754Z,68.05
2022-07-26T08:44:36.036Z,68.01
2022-07-26T08:45:35.030Z,67.78
2022-07-26T08:46:35.100Z,67.87
2022-07-26T08:47:35.630Z,68.18
2022-07-26T08:48:38.698Z,67.73
2022-07-26T08:49:35.987Z,66.64
2022-07-26T08:50:34.976Z,67.26
2022-07-26T08:51:34.971Z,66.62
2022-07-26T08:52:34.981Z,67.62
2022-07-26T08:53:35.036Z,66.60
2022-07-26T08:54:34.997Z,67.02
2022-07-26T08:55:56.758Z,67.13
2022-07-26T08:56:36.924Z,65.81
2022-07-26T08:57:35.003Z,66.31
2022-07-26T08:58:34.960Z,68.06
2022-07-26T08:59:34.891Z,67.73
2022-07-26T09:00:34.978Z,67.47
2022-07-26T09:01:35.001Z,67.02
2022-07-26T09:02:34.886Z,66.67
2022-07-26T09:03:34.991Z,67.61
2022-07-26T09:04:41.464Z,67.43
2022-07-26T09:05:36.833Z,68.30
2022-07-26T09:06:34.899Z,67.35
2022-07-26T09:07:34.838Z,66.60
2022-07-26T09:08:34.897Z,68.16
2022-07-26T09:09:34.893Z,67.60
2022-07-26T09:10:39.007Z,66.26
2022-07-26T09:11:34.894Z,66.89
2022-07-26T09:12:34.821Z,66.51
2022-07-26T09:13:34.876Z,67.85
2022-07-26T09:14:34.834Z,68.21
2022-07-26T09:15:34.799Z,66.95
2022-07-26T09:16:39.266Z,66.32
2022-07-26T09:17:36.708Z,67.06
2022-07-26T09:18:34.844Z,67.50
2022-07-26T09:19:35.675Z,67.93
2022-07-26T09:20:34.787Z,67.43
2022-07-26T09:21:34.745Z,67.39
2022-07-26T09:22:34.739Z,65.50
2022-07-26T09:23:34.738Z,65.34
2022-07-26T09:24:34.762Z,65.64
2022-07-26T09:25:34.717Z,66.52
2022-07-26T09:26:35.674Z,67.08
2022-07-26T09:27:34.665Z,66.21
2022-07-26T09:28:34.763Z,65.97
2022-07-26T09:29:34.595Z,66.70
2022-07-26T09:30:34.707Z,66.01
2022-07-26T09:31:35.350Z,65.62
2022-07-26T09:32:35.176Z,65.91
2022-07-26T09:33:35.182Z,64.60
2022-07-26T09:34:34.722Z,64.28
2022-07-26T09:35:52.094Z,66.04
2022-07-26T09:36:36.531Z,65.25
2022-07-26T09:37:34.507Z,66.24
2022-07-26T09:38:34.509Z,64.19
2022-07-26T09:39:34.607Z,66.36
2022-07-26T09:40:34.559Z,65.88
2022-07-26T09:41:34.482Z,65.59
2022-07-26T09:42:34.466Z,64.83
2022-07-26T09:43:34.454Z,64.57
2022-07-26T09:44:34.438Z,63.68
2022-07-26T09:45:35.430Z,64.42
2022-07-26T09:46:34.504Z,64.47
2022-07-26T09:47:34.414Z,65.54
2022-07-26T09:48:59.366Z,65.87
2022-07-26T09:49:40.567Z,65.08
2022-07-26T09:50:34.388Z,65.47
2022-07-26T09:51:34.370Z,66.90
2022-07-26T09:52:34.365Z,64.30
2022-07-26T09:53:34.396Z,66.22
2022-07-26T09:54:34.352Z,65.69
2022-07-26T09:55:44.248Z,65.44
2022-07-26T09:56:35.333Z,65.18
2022-07-26T09:57:34.323Z,66.29
2022-07-26T09:58:34.343Z,65.99
2022-07-26T09:59:34.289Z,65.69
2022-07-26T10:00:34.305Z,64.05
2022-07-26T10:01:34.346Z,64.72
2022-07-26T10:02:34.322Z,66.09
2022-07-26T10:03:34.284Z,64.90
2022-07-26T10:04:34.268Z,64.99
2022-07-26T10:05:34.256Z,65.50
2022-07-26T10:06:34.247Z,64.89
2022-07-26T10:07:34.219Z,66.10
2022-07-26T10:08:34.238Z,66.21
2022-07-26T10:09:34.236Z,65.89
2022-07-26T10:10:34.200Z,66.80
2022-07-26T10:11:34.195Z,66.03
2022-07-26T10:12:34.174Z,68.65
2022-07-26T10:13:34.176Z,68.91
2022-07-26T10:14:34.156Z,68.05
2022-07-26T10:15:34.146Z,68.94
2022-07-26T10:16:34.224Z,67.80
2022-07-26T10:17:35.269Z,67.60
2022-07-26T10:18:34.142Z,67.36
2022-07-26T10:19:37.812Z,66.89
2022-07-26T10:20:35.103Z,67.06
2022-07-26T10:21:35.080Z,67.53
2022-07-26T10:22:34.078Z,67.68
2022-07-26T10:23:34.066Z,66.67
2022-07-26T10:24:34.052Z,66.20
2022-07-26T10:25:34.040Z,69.14
2022-07-26T10:26:34.084Z,67.57
2022-07-26T10:27:34.018Z,66.41
2022-07-26T10:28:34.016Z,66.41
2022-07-26T10:29:34.020Z,66.61
2022-07-26T10:30:35.316Z,67.62
2022-07-26T10:31:35.032Z,67.68
2022-07-26T10:32:33.972Z,66.31
2022-07-26T10:33:33.954Z,66.32
2022-07-26T10:34:33.979Z,66.84
2022-07-26T10:35:33.926Z,66.26
2022-07-26T10:36:33.928Z,66.76
2022-07-26T10:37:33.926Z,64.55
2022-07-26T10:38:33.910Z,64.48
2022-07-26T10:39:33.911Z,65.13
2022-07-26T10:40:33.884Z,64.50
2022-07-26T10:41:33.880Z,65.63
2022-07-26T10:42:33.858Z,66.44
2022-07-26T10:43:42.021Z,67.30
2022-07-26T10:44:35.852Z,67.07
2022-07-26T10:45:33.836Z,68.09
2022-07-26T10:46:33.933Z,66.35
2022-07-26T10:47:35.514Z,66.08
2022-07-26T10:48:33.909Z,64.18
2022-07-26T10:49:33.832Z,64.41
2022-07-26T10:50:33.786Z,64.85
2022-07-26T10:51:33.789Z,64.48
2022-07-26T10:52:33.771Z,64.93
2022-07-26T10:53:33.766Z,63.47
2022-07-26T10:54:33.766Z,64.54
2022-07-26T10:55:33.730Z,65.06
2022-07-26T10:56:34.213Z,65.21
2022-07-26T10:57:33.724Z,66.13
2022-07-26T10:58:33.709Z,65.20
2022-07-26T10:59:54.787Z,63.24
2022-07-26T11:00:35.681Z,64.81
2022-07-26T11:01:33.777Z,64.23
2022-07-26T11:02:33.687Z,63.22
2022-07-26T11:03:38.483Z,62.80
2022-07-26T11:04:34.661Z,62.00
2022-07-26T11:05:33.640Z,62.93
2022-07-26T11:06:33.631Z,63.53
2022-07-26T11:07:33.611Z,63.86
2022-07-26T11:08:33.602Z,64.37
2022-07-26T11:09:33.629Z,63.40
2022-07-26T11:10:33.587Z,63.02
2022-07-26T11:11:33.592Z,62.91
2022-07-26T11:12:33.585Z,62.79
2022-07-26T11:13:33.571Z,62.64
2022-07-26T11:14:33.576Z,63.21
2022-07-26T11:15:33.609Z,64.73
2022-07-26T11:16:33.559Z,64.68
2022-07-26T11:17:33.521Z,64.30
2022-07-26T11:18:33.542Z,63.79
2022-07-26T11:19:33.514Z,63.44
2022-07-26T11:20:33.499Z,63.09
2022-07-26T11:21:33.538Z,63.72
2022-07-26T11:22:33.479Z,64.94
2022-07-26T11:23:33.462Z,65.31
2022-07-26T11:24:33.487Z,65.80
2022-07-26T11:25:33.444Z,64.41
2022-07-26T11:26:34.448Z,65.07
2022-07-26T11:27:33.429Z,64.23
2022-07-26T11:28:33.419Z,64.68
2022-07-26T11:29:38.891Z,64.30
2022-07-26T11:30:34.400Z,64.58
2022-07-26T11:31:51.120Z,64.69
2022-07-26T11:32:34.446Z,64.64
2022-07-26T11:33:33.368Z,64.49
2022-07-26T11:34:33.438Z,66.20
2022-07-26T11:35:33.361Z,64.42
2022-07-26T11:36:33.344Z,64.05
2022-07-26T11:37:33.333Z,63.84
2022-07-26T11:38:33.310Z,63.32
2022-07-26T11:39:33.344Z,62.12
2022-07-26T11:40:33.305Z,62.82
2022-07-26T11:41:34.950Z,62.52
2022-07-26T11:42:33.279Z,63.14
2022-07-26T11:43:33.301Z,63.28
2022-07-26T11:44:33.274Z,63.14
2022-07-26T11:45:33.249Z,64.97
2022-07-26T11:46:33.405Z,65.41
2022-07-26T11:47:33.242Z,64.86
2022-07-26T11:48:33.240Z,65.58
2022-07-26T11:49:52.355Z,65.28
2022-07-26T11:50:35.193Z,65.42
2022-07-26T11:51:33.195Z,65.71
2022-07-26T11:52:33.365Z,67.32
2022-07-26T11:53:33.209Z,66.62
2022-07-26T11:54:33.172Z,66.15
2022-07-26T11:55:33.153Z,66.85
2022-07-26T11:56:33.145Z,66.83
2022-07-26T11:57:33.191Z,67.65
2022-07-26T11:58:33.127Z,65.51
2022-07-26T11:59:33.150Z,67.51
2022-07-26T12:00:33.100Z,67.19
2022-07-26T12:01:33.134Z,66.85
2022-07-26T12:02:33.079Z,66.61
2022-07-26T12:03:33.079Z,67.70
2022-07-26T12:04:33.143Z,68.48
2022-07-26T12:05:33.104Z,67.15
2022-07-26T12:06:33.038Z,63.62
2022-07-26T12:07:33.039Z,64.39
2022-07-26T12:08:33.037Z,65.71
2022-07-26T12:09:33.036Z,66.04
2022-07-26T12:10:33.000Z,67.32
2022-07-26T12:11:32.996Z,65.74
2022-07-26T12:12:32.980Z,64.75
2022-07-26T12:13:39.732Z,66.17
2022-07-26T12:14:33.978Z,64.66
2022-07-26T12:15:32.990Z,65.12
2022-07-26T12:16:33.071Z,64.39
2022-07-26T12:17:34.973Z,65.64
2022-07-26T12:18:32.922Z,65.52
2022-07-26T12:19:32.938Z,65.16
2022-07-26T12:20:32.897Z,65.24
2022-07-26T12:21:32.907Z,64.63
2022-07-26T12:22:32.887Z,64.50
2022-07-26T12:23:32.881Z,63.28
2022-07-26T12:24:32.886Z,63.27
2022-07-26T12:25:32.867Z,63.86
2022-07-26T12:26:32.870Z,66.09
2022-07-26T12:27:32.843Z,63.54
2022-07-26T12:28:32.839Z,64.18
2022-07-26T12:29:32.850Z,64.74
2022-07-26T12:30:32.907Z,65.43
2022-07-26T12:31:33.071Z,66.67
2022-07-26T12:32:32.804Z,65.65
2022-07-26T12:33:32.796Z,66.63
2022-07-26T12:34:32.796Z,66.51
2022-07-26T12:35:32.841Z,66.37
2022-07-26T12:36:32.773Z,66.80
2022-07-26T12:37:40.102Z,68.79
2022-07-26T12:38:34.696Z,68.11
2022-07-26T12:39:32.753Z,67.40
2022-07-26T12:40:32.718Z,69.32
2022-07-26T12:41:32.789Z,69.03
2022-07-26T12:42:33.249Z,69.19
2022-07-26T12:43:32.844Z,69.28
2022-07-26T12:44:33.144Z,70.16
2022-07-26T12:45:32.699Z,69.91
2022-07-26T12:46:32.731Z,69.66
2022-07-26T12:47:32.736Z,70.84
2022-07-26T12:48:32.753Z,68.79
2022-07-26T12:49:32.742Z,69.34
2022-07-26T12:50:32.659Z,68.74
2022-07-26T12:51:32.648Z,68.49
2022-07-26T12:52:33.125Z,69.45